createdAt,value
2024-05-09T00:01:15.082Z,7.9
2024-05-09T00:04:05.201Z,7.8
2024-05-09T00:07:05.006Z,7.8
2024-05-09T00:10:05.592Z,7.8
2024-05-09T00:13:05.349Z,7.8
2024-05-09T00:16:04.926Z,8.0
2024-05-09T00:19:05.880Z,8.2
2024-05-09T00:22:05.023Z,8.2
2024-05-09T00:25:04.731Z,8.1
2024-05-09T00:28:04.750Z,8.0
2024-05-09T00:34:05.991Z,7.8
2024-05-09T00:37:04.796Z,7.8
2024-05-09T00:40:07.342Z,7.8
2024-05-09T00:43:04.772Z,7.7
2024-05-09T00:46:04.865Z,7.6
2024-05-09T00:49:09.679Z,7.6
2024-05-09T00:52:05.125Z,7.6
2024-05-09T00:55:04.781Z,7.6
2024-05-09T00:58:05.795Z,7.5
2024-05-09T01:04:07.586Z,7.4
2024-05-09T01:07:04.870Z,7.4
2024-05-09T01:10:07.145Z,7.3
2024-05-09T01:13:05.840Z,7.3
2024-05-09T01:16:04.851Z,7.4
2024-05-09T01:19:06.224Z,7.4
2024-05-09T01:22:04.730Z,7.2
2024-05-09T01:25:04.714Z,7.1
2024-05-09T01:28:04.701Z,7.2
2024-05-09T01:31:10.755Z,7.2
2024-05-09T01:34:06.013Z,7.2
2024-05-09T01:37:04.888Z,7.1
2024-05-09T01:40:07.356Z,7.1
2024-05-09T01:43:04.774Z,7.0
2024-05-09T01:46:04.677Z,7.1
2024-05-09T01:49:06.256Z,7.1
2024-05-09T01:52:05.025Z,7.0
2024-05-09T01:55:06.357Z,6.9
2024-05-09T01:58:04.720Z,6.9
2024-05-09T02:01:16.120Z,6.9
2024-05-09T02:04:07.267Z,6.9
2024-05-09T02:07:04.793Z,6.8
2024-05-09T02:10:08.619Z,6.9
2024-05-09T02:13:05.348Z,6.8
2024-05-09T02:16:04.680Z,6.8
2024-05-09T02:19:05.840Z,6.7
2024-05-09T02:22:05.144Z,6.7
2024-05-09T02:25:04.734Z,6.8
2024-05-09T02:28:04.792Z,6.7
2024-05-09T02:31:15.052Z,6.6
2024-05-09T02:34:06.159Z,6.5
2024-05-09T02:37:04.729Z,6.5
2024-05-09T02:40:05.786Z,6.4
2024-05-09T02:43:04.851Z,6.4
2024-05-09T02:46:04.896Z,6.3
2024-05-09T02:49:06.869Z,6.3
2024-05-09T02:52:04.954Z,6.2
2024-05-09T02:55:04.926Z,6.2
2024-05-09T02:58:05.107Z,6.2
2024-05-09T03:01:14.870Z,6.2
2024-05-09T03:04:06.504Z,6.2
2024-05-09T03:07:04.985Z,6.2
2024-05-09T03:10:07.452Z,6.2
2024-05-09T03:13:06.243Z,6.1
2024-05-09T03:16:04.790Z,6.0
2024-05-09T03:19:05.893Z,6.1
2024-05-09T03:22:04.806Z,6.0
2024-05-09T03:25:04.812Z,6.0
2024-05-09T03:28:04.648Z,6.0
2024-05-09T03:34:07.975Z,6.1
2024-05-09T03:37:04.643Z,6.1
2024-05-09T03:40:07.317Z,6.0
2024-05-09T03:43:04.727Z,5.9
2024-05-09T03:46:04.689Z,5.9
2024-05-09T03:49:06.089Z,5.9
2024-05-09T03:52:04.898Z,5.9
2024-05-09T03:55:04.656Z,5.8
2024-05-09T03:58:04.725Z,5.7
2024-05-09T04:01:15.056Z,5.6
2024-05-09T04:04:05.685Z,5.6
2024-05-09T04:07:04.733Z,5.6
2024-05-09T04:10:05.463Z,5.7
2024-05-09T04:13:05.229Z,5.9
2024-05-09T04:16:05.061Z,6.0
2024-05-09T04:19:06.644Z,6.1
2024-05-09T04:22:04.859Z,6.2
2024-05-09T04:25:04.768Z,6.4
2024-05-09T04:28:04.858Z,6.4
2024-05-09T04:34:06.066Z,6.5
2024-05-09T04:37:04.692Z,6.4
2024-05-09T04:40:06.956Z,6.4
2024-05-09T04:43:04.772Z,6.3
2024-05-09T04:46:04.813Z,6.1
2024-05-09T04:49:06.343Z,6.1
2024-05-09T04:52:04.811Z,6.1
2024-05-09T04:58:04.738Z,6.4
2024-05-09T05:01:14.717Z,6.4
2024-05-09T05:04:06.197Z,6.4
2024-05-09T05:07:04.773Z,6.5
2024-05-09T05:10:05.932Z,6.5
2024-05-09T05:13:05.010Z,6.5
2024-05-09T05:16:04.895Z,6.6
2024-05-09T05:19:08.163Z,6.7
2024-05-09T05:22:05.174Z,6.7
2024-05-09T05:25:04.702Z,6.7
2024-05-09T05:28:04.731Z,6.7
2024-05-09T05:31:13.364Z,6.8
2024-05-09T05:34:05.683Z,6.8
2024-05-09T05:37:04.811Z,6.9
2024-05-09T05:40:05.746Z,7.1
2024-05-09T05:43:04.651Z,7.4
2024-05-09T05:46:04.741Z,7.5
2024-05-09T05:49:06.748Z,7.6
2024-05-09T05:52:08.247Z,7.5
2024-05-09T05:55:04.735Z,7.6
2024-05-09T05:58:04.709Z,7.7
2024-05-09T06:04:05.588Z,7.8
2024-05-09T06:07:04.764Z,8.1
2024-05-09T06:10:09.251Z,8.1
2024-05-09T06:13:04.982Z,8.1
2024-05-09T06:16:04.823Z,8.3
2024-05-09T06:19:06.493Z,8.6
2024-05-09T06:22:05.109Z,8.7
2024-05-09T06:25:05.985Z,8.8
2024-05-09T06:28:04.889Z,8.8
2024-05-09T06:34:06.410Z,8.7
2024-05-09T06:37:04.748Z,8.7
2024-05-09T06:40:07.244Z,8.7
2024-05-09T06:43:04.750Z,8.8
2024-05-09T06:46:05.492Z,8.9
2024-05-09T06:49:06.120Z,9.2
2024-05-09T06:52:04.962Z,9.2
2024-05-09T06:55:04.772Z,9.4
2024-05-09T06:58:04.707Z,9.5
2024-05-09T07:04:09.678Z,9.5
2024-05-09T07:07:04.869Z,9.7
2024-05-09T07:10:06.351Z,9.7
2024-05-09T07:13:05.428Z,9.8
2024-05-09T07:16:04.711Z,9.8
2024-05-09T07:19:08.456Z,9.9
2024-05-09T07:22:04.765Z,10.2
2024-05-09T07:25:04.873Z,10.3
2024-05-09T07:28:04.661Z,10.3
2024-05-09T07:31:12.028Z,10.4
2024-05-09T07:34:05.857Z,10.3
2024-05-09T07:37:04.747Z,10.5
2024-05-09T07:40:05.903Z,10.4
2024-05-09T07:43:04.701Z,10.4
2024-05-09T07:55:07.019Z,10.2
2024-05-09T07:58:05.288Z,10.0
2024-05-09T08:01:12.559Z,9.4
2024-05-09T08:04:06.816Z,9.9
2024-05-09T08:07:04.889Z,10.4
2024-05-09T08:10:13.039Z,10.7
2024-05-09T08:13:04.867Z,10.8
2024-05-09T08:16:05.206Z,10.8
2024-05-09T08:19:05.939Z,10.4
2024-05-09T08:22:05.000Z,10.3
2024-05-09T08:25:04.973Z,10.4
2024-05-09T08:28:05.046Z,10.4
2024-05-09T08:31:14.246Z,10.3
2024-05-09T08:34:05.950Z,10.3
2024-05-09T08:37:10.009Z,10.2
2024-05-09T08:40:06.456Z,9.8
2024-05-09T08:43:04.911Z,9.8
2024-05-09T08:46:04.882Z,9.8
2024-05-09T08:49:06.345Z,9.9
2024-05-09T08:52:04.923Z,9.9
2024-05-09T08:55:04.832Z,9.7
2024-05-09T08:58:04.943Z,9.7
2024-05-09T09:01:10.137Z,9.7
2024-05-09T09:04:05.417Z,9.6
2024-05-09T09:07:04.806Z,9.8
2024-05-09T09:10:05.728Z,10.0
2024-05-09T09:13:05.252Z,9.9
2024-05-09T09:16:05.533Z,9.9
2024-05-09T09:19:06.589Z,9.7
2024-05-09T09:22:04.830Z,9.1
2024-05-09T09:25:04.945Z,9.1
2024-05-09T09:28:04.756Z,8.8
2024-05-09T09:34:06.301Z,9.4
2024-05-09T09:37:04.750Z,9.8
2024-05-09T09:40:05.799Z,10.2
2024-05-09T09:43:04.850Z,10.2
2024-05-09T09:46:12.279Z,10.6
2024-05-09T09:49:05.602Z,10.6
2024-05-09T09:52:05.280Z,10.5
2024-05-09T09:55:04.953Z,10.5
2024-05-09T09:58:06.431Z,10.5
2024-05-09T10:01:06.677Z,10.6
2024-05-09T10:04:05.742Z,10.8
2024-05-09T10:07:05.105Z,11.0
2024-05-09T10:10:06.792Z,11.0
2024-05-09T10:13:06.099Z,11.2
2024-05-09T10:16:04.938Z,11.0
2024-05-09T10:19:07.077Z,10.9
2024-05-09T10:22:04.938Z,10.8
2024-05-09T10:25:05.238Z,10.6
2024-05-09T10:28:05.084Z,10.5
2024-05-09T10:31:15.844Z,10.4
2024-05-09T10:34:06.972Z,10.8
2024-05-09T10:37:05.152Z,11.0
2024-05-09T10:40:07.195Z,11.2
2024-05-09T10:43:06.320Z,11.2
2024-05-09T10:46:05.182Z,10.5
2024-05-09T10:49:07.225Z,10.6
2024-05-09T10:52:05.159Z,10.6
2024-05-09T10:55:05.691Z,10.6
2024-05-09T10:58:05.132Z,10.9
2024-05-09T11:04:05.892Z,10.7
2024-05-09T11:07:05.453Z,10.5
2024-05-09T11:10:06.323Z,10.4
2024-05-09T11:13:05.065Z,10.5
2024-05-09T11:16:04.930Z,10.7
2024-05-09T11:19:10.759Z,10.5
2024-05-09T11:22:04.759Z,11.0
2024-05-09T11:25:05.581Z,11.1
2024-05-09T11:28:04.970Z,11.3
2024-05-09T11:31:12.877Z,11.4
2024-05-09T11:34:05.476Z,11.4
2024-05-09T11:37:04.987Z,11.4
2024-05-09T11:40:06.926Z,11.4
2024-05-09T11:43:08.741Z,11.5
2024-05-09T11:46:05.077Z,11.4
2024-05-09T11:49:05.771Z,11.2
2024-05-09T11:52:04.985Z,11.3
2024-05-09T11:55:04.982Z,11.2
2024-05-09T11:58:04.954Z,11.1
2024-05-09T12:01:13.984Z,11.2
2024-05-09T12:04:06.141Z,11.2
2024-05-09T12:07:05.498Z,11.0
2024-05-09T12:10:07.918Z,11.2
2024-05-09T12:13:08.036Z,11.0
2024-05-09T12:16:05.170Z,11.1
2024-05-09T12:19:08.729Z,10.9
2024-05-09T12:22:04.917Z,11.0
2024-05-09T12:25:07.335Z,11.1
2024-05-09T12:28:05.300Z,11.1
2024-05-09T12:34:05.692Z,11.1
2024-05-09T12:37:05.080Z,11.1
2024-05-09T12:40:08.899Z,11.0
2024-05-09T12:46:05.255Z,11.0
2024-05-09T12:49:06.044Z,11.3
2024-05-09T12:52:04.905Z,11.3
2024-05-09T12:55:05.032Z,11.3
2024-05-09T12:58:05.063Z,11.1
2024-05-09T13:04:06.402Z,10.7
2024-05-09T13:07:07.342Z,10.7
2024-05-09T13:10:05.679Z,10.9
2024-05-09T13:13:05.021Z,10.8
2024-05-09T13:16:04.948Z,10.9
2024-05-09T13:19:08.220Z,10.7
2024-05-09T13:22:04.730Z,10.6
2024-05-09T13:25:05.493Z,10.8
2024-05-09T13:28:04.896Z,10.8
2024-05-09T13:34:05.637Z,11.0
2024-05-09T13:37:04.808Z,10.8
2024-05-09T13:40:06.984Z,10.8
2024-05-09T13:43:05.459Z,10.6
2024-05-09T13:46:05.234Z,10.5
2024-05-09T13:49:06.675Z,10.5
2024-05-09T13:52:04.962Z,10.5
2024-05-09T13:55:08.062Z,10.6
2024-05-09T13:58:04.925Z,10.6
2024-05-09T14:04:07.728Z,10.8
2024-05-09T14:07:05.070Z,10.7
2024-05-09T14:10:06.648Z,10.8
2024-05-09T14:13:04.939Z,10.9
2024-05-09T14:16:05.432Z,10.6
2024-05-09T14:19:05.349Z,10.3
2024-05-09T14:22:04.868Z,10.1
2024-05-09T14:25:04.798Z,10.3
2024-05-09T14:28:04.983Z,10.4
2024-05-09T14:31:15.519Z,10.4
2024-05-09T14:34:05.618Z,10.7
2024-05-09T14:37:04.870Z,10.5
2024-05-09T14:40:07.034Z,10.1
2024-05-09T14:43:05.213Z,10.0
2024-05-09T14:46:05.219Z,10.1
2024-05-09T14:52:04.892Z,9.9
2024-05-09T14:55:11.843Z,9.9
2024-05-09T14:58:04.889Z,10.0
2024-05-09T15:01:20.411Z,10.3
2024-05-09T15:04:05.877Z,10.2
2024-05-09T15:07:04.999Z,10.2
2024-05-09T15:10:07.488Z,10.0
2024-05-09T15:13:05.652Z,10.0
2024-05-09T15:16:05.241Z,10.2
2024-05-09T15:19:05.947Z,10.2
2024-05-09T15:22:04.894Z,10.1
2024-05-09T15:25:04.790Z,10.0
2024-05-09T15:28:05.082Z,10.1
2024-05-09T15:31:16.431Z,10.2
2024-05-09T15:34:06.724Z,10.2
2024-05-09T15:37:04.813Z,10.4
2024-05-09T15:40:05.576Z,10.6
2024-05-09T15:43:04.954Z,10.5
2024-05-09T15:46:05.064Z,10.6
2024-05-09T15:49:05.859Z,10.5
2024-05-09T15:52:04.811Z,10.6
2024-05-09T15:55:04.744Z,10.7
2024-05-09T15:58:05.098Z,10.8
2024-05-09T16:04:05.413Z,10.8
2024-05-09T16:07:04.974Z,10.9
2024-05-09T16:10:06.711Z,10.9
2024-05-09T16:13:04.957Z,10.8
2024-05-09T16:16:05.203Z,10.6
2024-05-09T16:19:05.822Z,10.7
2024-05-09T16:22:05.154Z,10.6
2024-05-09T16:25:05.064Z,10.7
2024-05-09T16:28:07.352Z,10.5
2024-05-09T16:34:05.904Z,10.5
2024-05-09T16:37:04.961Z,10.5
2024-05-09T16:40:07.576Z,10.4
2024-05-09T16:43:05.159Z,10.5
2024-05-09T16:46:05.028Z,10.5
2024-05-09T16:49:05.784Z,10.2
2024-05-09T16:52:04.972Z,10.1
2024-05-09T16:55:05.001Z,10.2
2024-05-09T16:58:05.181Z,10.3
2024-05-09T17:04:06.151Z,10.4
2024-05-09T17:07:04.939Z,10.2
2024-05-09T17:13:06.051Z,10.1
2024-05-09T17:16:05.739Z,10.2
2024-05-09T17:19:05.104Z,10.2
2024-05-09T17:22:04.931Z,10.2
2024-05-09T17:25:04.847Z,10.2
2024-05-09T17:28:05.520Z,10.2
2024-05-09T17:34:05.518Z,10.8
2024-05-09T17:37:04.879Z,10.5
2024-05-09T17:40:06.733Z,10.4
2024-05-09T17:43:05.316Z,10.6
2024-05-09T17:46:05.549Z,10.4
2024-05-09T17:49:05.961Z,10.5
2024-05-09T17:52:04.760Z,10.6
2024-05-09T17:55:04.982Z,10.4
2024-05-09T17:58:05.338Z,10.4
2024-05-09T18:04:05.444Z,10.6
2024-05-09T18:07:04.931Z,10.5
2024-05-09T18:10:07.850Z,10.4
2024-05-09T18:13:05.882Z,10.3
2024-05-09T18:16:05.533Z,10.2
2024-05-09T18:19:05.951Z,10.3
2024-05-09T18:22:05.045Z,10.4
2024-05-09T18:25:05.149Z,10.3
2024-05-09T18:28:05.063Z,10.2
2024-05-09T18:34:06.125Z,10.1
2024-05-09T18:37:04.905Z,10.3
2024-05-09T18:40:05.734Z,10.2
2024-05-09T18:43:05.905Z,10.2
2024-05-09T18:46:05.202Z,10.1
2024-05-09T18:49:05.710Z,10.3
2024-05-09T18:52:04.972Z,10.3
2024-05-09T18:55:05.007Z,10.3
2024-05-09T18:58:04.971Z,10.4
2024-05-09T19:04:06.078Z,11.0
2024-05-09T19:07:04.891Z,10.9
2024-05-09T19:10:05.764Z,10.9
2024-05-09T19:13:07.121Z,10.9
2024-05-09T19:16:05.029Z,10.9
2024-05-09T19:19:05.785Z,11.0
2024-05-09T19:22:05.062Z,11.0
2024-05-09T19:25:04.998Z,11.2
2024-05-09T19:28:05.441Z,11.2
2024-05-09T19:34:05.570Z,11.4
2024-05-09T19:37:04.897Z,11.5
2024-05-09T19:40:06.737Z,11.5
2024-05-09T19:43:05.437Z,11.4
2024-05-09T19:46:05.851Z,11.4
2024-05-09T19:49:05.960Z,11.4
2024-05-09T19:52:05.206Z,11.6
2024-05-09T19:55:04.971Z,11.0
2024-05-09T19:58:05.859Z,10.7
2024-05-09T20:01:17.335Z,10.7
2024-05-09T20:04:05.980Z,10.6
2024-05-09T20:07:04.854Z,10.7
2024-05-09T20:10:06.496Z,10.8
2024-05-09T20:13:05.767Z,10.6
2024-05-09T20:16:04.958Z,10.4
2024-05-09T20:19:06.077Z,10.4
2024-05-09T20:22:05.318Z,10.1
2024-05-09T20:25:04.915Z,10.1
2024-05-09T20:28:04.903Z,10.0
2024-05-09T20:31:14.237Z,9.9
2024-05-09T20:34:05.870Z,9.9
2024-05-09T20:37:07.386Z,9.9
2024-05-09T20:40:07.845Z,9.8
2024-05-09T20:43:05.180Z,9.8
2024-05-09T20:46:04.916Z,9.9
2024-05-09T20:49:05.970Z,9.9
2024-05-09T20:52:04.914Z,9.9
2024-05-09T20:55:04.882Z,9.9
2024-05-09T20:58:05.034Z,10.0
2024-05-09T21:01:16.265Z,10.0
2024-05-09T21:04:06.940Z,10.2
2024-05-09T21:07:04.842Z,10.2
2024-05-09T21:10:10.070Z,10.2
2024-05-09T21:13:05.341Z,10.4
2024-05-09T21:16:04.944Z,10.3
2024-05-09T21:19:05.156Z,10.4
2024-05-09T21:22:06.875Z,10.6
2024-05-09T21:25:04.842Z,10.6
2024-05-09T21:28:04.853Z,10.5
2024-05-09T21:34:05.775Z,10.7
2024-05-09T21:37:04.935Z,10.5
2024-05-09T21:40:09.142Z,10.4
2024-05-09T21:43:04.993Z,10.5
2024-05-09T21:46:05.106Z,10.5
2024-05-09T21:49:05.298Z,10.6
2024-05-09T21:52:04.978Z,10.7
2024-05-09T21:55:04.816Z,10.8
2024-05-09T21:58:05.036Z,10.6
2024-05-09T22:04:05.481Z,10.2
2024-05-09T22:07:04.864Z,10.1
2024-05-09T22:10:08.133Z,10.1
2024-05-09T22:13:05.494Z,10.0
2024-05-09T22:16:04.877Z,10.0
2024-05-09T22:19:05.720Z,9.9
2024-05-09T22:22:04.864Z,9.9
2024-05-09T22:25:04.824Z,10.0
2024-05-09T22:28:05.052Z,9.8
2024-05-09T22:34:05.796Z,9.9
2024-05-09T22:37:04.911Z,10.0
2024-05-09T22:40:06.631Z,10.0
2024-05-09T22:43:04.995Z,10.0
2024-05-09T22:46:05.078Z,10.0
2024-05-09T22:49:05.879Z,9.8
2024-05-09T22:52:04.912Z,9.8
2024-05-09T22:55:04.861Z,9.8
2024-05-09T22:58:04.880Z,9.8
2024-05-09T23:01:10.570Z,9.9
2024-05-09T23:04:05.896Z,10.0
2024-05-09T23:07:04.887Z,10.3
2024-05-09T23:10:08.405Z,10.5
2024-05-09T23:13:04.996Z,10.5
2024-05-09T23:16:05.018Z,10.3
2024-05-09T23:19:05.300Z,10.3
2024-05-09T23:22:04.774Z,10.1
2024-05-09T23:25:04.901Z,9.9
2024-05-09T23:28:04.976Z,10.0
2024-05-09T23:34:05.566Z,10.1
2024-05-09T23:37:04.996Z,10.1
2024-05-09T23:40:06.981Z,9.9
2024-05-09T23:43:04.867Z,9.9
2024-05-09T23:46:04.670Z,9.8
2024-05-09T23:49:05.526Z,9.7
2024-05-09T23:52:04.708Z,9.7
2024-05-09T23:55:05.045Z,9.7
2024-05-09T23:58:04.996Z,9.6
